createdAt,value
2023-02-12T00:10:00.723Z,55.87
2023-02-12T00:22:12.198Z,63.20
2023-02-12T00:28:14.727Z,55.63
2023-02-12T00:34:16.904Z,54.67
2023-02-12T00:40:19.255Z,52.28
2023-02-12T00:52:24.686Z,56.80
2023-02-12T00:58:27.361Z,61.42
2023-02-12T01:04:29.504Z,53.55
2023-02-12T01:10:32.013Z,57.17
2023-02-12T01:16:36.928Z,60.25
2023-02-12T01:22:39.677Z,56.60
2023-02-12T01:28:44.189Z,58.65
2023-02-12T01:34:46.551Z,53.78
2023-02-12T01:40:49.310Z,57.72
2023-02-12T01:46:59.980Z,58.28
2023-02-12T01:53:02.289Z,71.32
2023-02-12T02:05:07.757Z,70.03
2023-02-12T02:11:28.991Z,63.90
2023-02-12T02:17:47.457Z,57.38
2023-02-12T02:24:01.556Z,57.70
2023-02-12T02:30:45.723Z,60.05
2023-02-12T02:37:00.793Z,61.05
2023-02-12T02:43:09.925Z,59.00
2023-02-12T02:49:27.424Z,64.70
2023-02-12T02:55:37.392Z,56.92
2023-02-12T03:02:05.893Z,69.55
2023-02-12T03:08:15.245Z,61.83
2023-02-12T03:14:26.947Z,68.90
2023-02-12T03:20:33.837Z,50.30
2023-02-12T03:26:46.335Z,64.43
2023-02-12T03:33:09.431Z,64.38
2023-02-12T03:39:20.683Z,65.72
2023-02-12T03:45:52.635Z,64.38
2023-02-12T03:51:55.474Z,54.70
2023-02-12T03:58:01.957Z,54.33
2023-02-12T04:04:07.430Z,62.47
2023-02-12T04:10:10.236Z,63.47
2023-02-12T04:16:29.518Z,62.63
2023-02-12T04:23:03.454Z,66.25
2023-02-12T04:29:18.770Z,60.25
2023-02-12T04:35:59.830Z,65.25
2023-02-12T04:42:02.817Z,62.20
2023-02-12T04:48:06.652Z,68.25
2023-02-12T04:54:08.822Z,70.45
2023-02-12T05:00:13.772Z,59.03
2023-02-12T05:06:15.980Z,64.82
2023-02-12T05:12:20.725Z,82.03
2023-02-12T05:18:23.125Z,58.35
2023-02-12T05:24:26.064Z,65.95
2023-02-12T05:30:28.533Z,74.07
2023-02-12T05:42:33.227Z,68.75
2023-02-12T05:54:37.967Z,71.72
2023-02-12T06:00:40.498Z,59.03
2023-02-12T06:06:42.990Z,78.75
2023-02-12T06:18:47.592Z,83.97
2023-02-12T06:24:49.950Z,78.22
2023-02-12T06:30:52.704Z,81.38
2023-02-12T06:36:55.293Z,97.60
2023-02-12T06:42:57.776Z,69.93
2023-02-12T06:55:02.968Z,86.30
2023-02-12T07:01:14.105Z,81.03
2023-02-12T07:07:16.470Z,80.05
2023-02-12T07:13:18.610Z,76.35
2023-02-12T07:19:21.185Z,77.30
2023-02-12T07:25:23.287Z,77.80
2023-02-12T07:31:26.224Z,84.00
2023-02-12T07:37:28.834Z,90.88
2023-02-12T07:43:31.143Z,84.72
2023-02-12T07:49:33.493Z,75.85
2023-02-12T07:55:35.888Z,74.15
2023-02-12T08:01:41.391Z,76.10
2023-02-12T08:07:43.873Z,86.93
2023-02-12T08:13:46.458Z,77.03
2023-02-12T08:25:50.748Z,65.18
2023-02-12T08:32:04.152Z,56.22
2023-02-12T08:38:06.458Z,53.67
2023-02-12T08:44:09.445Z,49.22
2023-02-12T08:50:12.005Z,64.38
2023-02-12T08:56:17.154Z,58.30
2023-02-12T09:02:19.226Z,48.97
2023-02-12T09:08:21.545Z,49.97
2023-02-12T09:14:24.878Z,42.88
2023-02-12T09:20:27.368Z,57.80
2023-02-12T09:26:29.627Z,46.57
2023-02-12T09:32:31.647Z,45.25
2023-02-12T09:38:34.687Z,51.50
2023-02-12T09:44:50.912Z,57.47
2023-02-12T09:50:55.712Z,63.97
2023-02-12T09:57:02.170Z,91.40
2023-02-12T10:03:11.788Z,56.55
2023-02-12T10:09:48.588Z,40.47
2023-02-12T10:16:05.977Z,47.92
2023-02-12T10:22:31.170Z,43.65
2023-02-12T10:28:40.047Z,40.78
2023-02-12T10:34:43.256Z,47.10
2023-02-12T10:40:46.161Z,37.83
2023-02-12T10:46:48.561Z,40.92
2023-02-12T10:52:56.154Z,42.75
2023-02-12T10:59:00.511Z,39.05
2023-02-12T11:05:24.554Z,38.22
2023-02-12T11:11:31.770Z,45.70
2023-02-12T11:17:38.773Z,39.58
2023-02-12T11:23:43.668Z,53.70
2023-02-12T11:29:49.986Z,49.63
2023-02-12T11:35:58.068Z,53.63
2023-02-12T11:42:06.646Z,47.08
2023-02-12T11:48:22.970Z,45.17
2023-02-12T11:54:28.845Z,58.92
2023-02-12T12:00:39.117Z,56.40
2023-02-12T12:06:52.706Z,37.90
2023-02-12T12:13:02.989Z,48.72
2023-02-12T12:19:34.965Z,42.75
2023-02-12T12:25:45.383Z,40.78
2023-02-12T12:31:59.789Z,39.97
2023-02-12T12:38:22.600Z,40.10
2023-02-12T12:44:49.936Z,43.58
2023-02-12T12:51:16.297Z,32.13
2023-02-12T12:57:47.152Z,39.92
2023-02-12T13:04:11.272Z,45.90
2023-02-12T13:10:16.167Z,38.17
2023-02-12T13:16:35.752Z,36.10
2023-02-12T13:22:58.661Z,41.35
2023-02-12T13:29:13.605Z,37.47
2023-02-12T13:35:23.852Z,41.03
2023-02-12T13:41:27.688Z,32.35
2023-02-12T13:47:38.959Z,29.52
2023-02-12T13:53:50.967Z,28.75
2023-02-12T13:59:54.505Z,42.42
2023-02-12T14:06:17.485Z,33.33
2023-02-12T14:12:26.110Z,41.33
2023-02-12T14:18:32.980Z,32.05
2023-02-12T14:24:56.196Z,37.90
2023-02-12T14:31:20.553Z,49.65
2023-02-12T14:37:37.784Z,37.72
2023-02-12T14:43:58.982Z,65.72
2023-02-12T14:50:19.111Z,45.58
2023-02-12T14:56:23.588Z,42.28
2023-02-12T15:02:28.600Z,97.40
2023-02-12T15:08:45.845Z,75.88
2023-02-12T15:14:55.531Z,46.35
2023-02-12T15:21:14.397Z,47.55
2023-02-12T15:27:17.685Z,47.38
2023-02-12T15:33:27.239Z,42.65
2023-02-12T15:39:44.232Z,55.13
2023-02-12T15:45:52.361Z,51.08
2023-02-12T15:51:55.453Z,45.30
2023-02-12T15:58:02.118Z,55.80
2023-02-12T16:04:06.992Z,43.65
2023-02-12T16:10:18.597Z,45.22
2023-02-12T16:16:24.535Z,50.67
2023-02-12T16:22:40.991Z,42.22
2023-02-12T16:28:48.622Z,47.45
2023-02-12T16:34:59.682Z,43.30
2023-02-12T16:41:35.018Z,50.78
2023-02-12T16:47:37.265Z,50.13
2023-02-12T16:53:44.141Z,46.05
2023-02-12T16:59:46.564Z,53.08
2023-02-12T17:05:49.780Z,79.35
2023-02-12T17:11:52.133Z,72.25
2023-02-12T17:17:54.440Z,65.93
2023-02-12T17:23:57.129Z,72.53
2023-02-12T17:29:59.484Z,86.53
2023-02-12T17:36:02.072Z,62.10
2023-02-12T17:54:10.455Z,86.90
2023-02-12T18:00:13.817Z,99.63
2023-02-12T18:06:25.660Z,95.93
2023-02-12T18:12:28.081Z,94.28
2023-02-12T18:18:30.389Z,101.63
2023-02-12T18:24:34.755Z,82.40
2023-02-12T18:30:39.538Z,93.70
2023-02-12T18:36:41.739Z,88.13
2023-02-12T18:42:43.927Z,75.68
2023-02-12T18:48:46.270Z,87.78
2023-02-12T18:54:48.366Z,71.50
2023-02-12T19:00:50.557Z,71.75
2023-02-12T19:06:54.536Z,89.82
2023-02-12T19:12:57.253Z,92.70
2023-02-12T19:19:01.572Z,70.25
2023-02-12T19:25:04.656Z,75.63
2023-02-12T19:31:15.629Z,69.85
2023-02-12T19:37:18.102Z,73.57
2023-02-12T19:43:20.416Z,68.75
2023-02-12T19:55:26.579Z,77.60
2023-02-12T20:01:29.374Z,79.40
2023-02-12T20:07:31.622Z,71.65
2023-02-12T20:13:34.370Z,78.32
2023-02-12T20:19:36.647Z,83.90
2023-02-12T20:25:45.437Z,81.38
2023-02-12T20:31:48.270Z,94.90
2023-02-12T20:37:50.679Z,104.72
2023-02-12T20:43:53.068Z,104.93
2023-02-12T20:56:04.807Z,85.00
2023-02-12T21:02:08.244Z,85.20
2023-02-12T21:08:10.723Z,80.82
2023-02-12T21:20:26.200Z,43.88
2023-02-12T21:26:30.396Z,69.95
2023-02-12T21:32:32.761Z,57.22
2023-02-12T21:44:37.968Z,57.70
2023-02-12T21:56:43.954Z,48.70
2023-02-12T22:02:46.250Z,47.90
2023-02-12T22:08:49.783Z,49.85
2023-02-12T22:14:52.101Z,44.38
2023-02-12T22:20:59.909Z,39.03
2023-02-12T22:27:02.057Z,44.60
2023-02-12T22:33:04.159Z,41.22
2023-02-12T22:39:06.888Z,49.03
2023-02-12T22:45:09.621Z,48.13
2023-02-12T22:51:15.361Z,50.85
2023-02-12T22:57:18.052Z,57.92
2023-02-12T23:03:20.242Z,51.55
2023-02-12T23:09:22.384Z,56.42
2023-02-12T23:15:24.627Z,56.78
2023-02-12T23:21:28.261Z,51.30
2023-02-12T23:27:30.410Z,55.17
2023-02-12T23:33:32.571Z,75.35
2023-02-12T23:39:34.785Z,52.95
2023-02-12T23:45:37.231Z,46.58
2023-02-12T23:51:39.779Z,44.88
2023-02-12T23:57:41.916Z,49.00
